Time;durP1;ratioP1;P1;durP2;ratioP2;P2;SDS_P1;SDS_P2;PMS_P1;PMS_P2;Temp;Humidity;BMP_temperature;BMP_pressure;BME280_temperature;BME280_humidity;BME280_pressure;Samples;Min_cycle;Max_cycle;Signal;HPM_P1;HPM_P2
2022/08/07 00:02:08;;;;;;;1.27;0.35;;;20.80;36.30;;;;;;2320190;54;21004;-70
2022/08/07 00:04:35;;;;;;;0.85;0.40;;;20.70;36.30;;;;;;2341336;54;20988;-68
2022/08/07 00:07:02;;;;;;;0.75;0.35;;;20.70;36.30;;;;;;2324433;54;20917;-70
2022/08/07 00:09:29;;;;;;;0.85;0.37;;;20.60;36.40;;;;;;2581173;53;21445;-73
2022/08/07 00:11:58;;;;;;;1.77;0.60;;;20.60;36.50;;;;;;2342144;55;21016;-72
2022/08/07 00:14:29;;;;;;;1.55;0.47;;;20.50;36.50;;;;;;2342425;54;21559;-73
2022/08/07 00:17:00;;;;;;;0.77;0.40;;;20.50;36.90;;;;;;2345432;54;20948;-74
2022/08/07 00:19:30;;;;;;;1.25;0.40;;;20.50;36.80;;;;;;2556321;53;20956;-69
2022/08/07 00:21:56;;;;;;;1.15;0.40;;;20.40;36.80;;;;;;2318243;55;21525;-72
2022/08/07 00:24:23;;;;;;;0.77;0.40;;;20.40;36.90;;;;;;2588410;53;20929;-70
2022/08/07 00:26:51;;;;;;;3.20;0.73;;;20.30;36.80;;;;;;2502509;53;20991;-69
2022/08/07 00:29:18;;;;;;;1.05;0.50;;;20.30;37.00;;;;;;2346801;53;20932;-68
2022/08/07 00:31:45;;;;;;;1.00;0.43;;;20.30;37.10;;;;;;2319854;54;20980;-72
2022/08/07 00:34:13;;;;;;;2.22;0.40;;;20.20;37.10;;;;;;2386663;53;20933;-70
2022/08/07 00:36:43;;;;;;;1.30;0.40;;;20.20;37.20;;;;;;2342011;54;21406;-69
2022/08/07 00:39:10;;;;;;;0.90;0.50;;;20.20;37.20;;;;;;2341219;55;20920;-69
2022/08/07 00:41:37;;;;;;;0.70;0.32;;;20.10;37.10;;;;;;2342095;54;20929;-73
2022/08/07 00:44:04;;;;;;;0.95;0.40;;;20.10;37.10;;;;;;2326898;54;21586;-72
2022/08/07 00:46:30;;;;;;;0.47;0.30;;;20.00;37.10;;;;;;2320550;54;21073;-72
2022/08/07 00:49:01;;;;;;;0.65;0.30;;;20.00;37.10;;;;;;2328873;54;21000;-69
2022/08/07 00:51:30;;;;;;;1.05;0.40;;;20.00;37.20;;;;;;2340607;54;21624;-69
2022/08/07 00:53:56;;;;;;;0.68;0.30;;;19.90;37.10;;;;;;2479864;53;20964;-70
2022/08/07 00:56:23;;;;;;;0.47;0.30;;;19.90;37.30;;;;;;2337141;54;20961;-68
2022/08/07 00:58:49;;;;;;;0.40;0.30;;;19.90;37.30;;;;;;2317287;54;21565;-71
2022/08/07 01:01:16;;;;;;;1.05;0.45;;;19.80;37.20;;;;;;2554076;53;20973;-74
2022/08/07 01:03:42;;;;;;;0.80;0.30;;;19.80;37.40;;;;;;2338344;55;20958;-71
2022/08/07 01:06:09;;;;;;;0.65;0.40;;;19.70;37.30;;;;;;2322753;54;20940;-70
2022/08/07 01:08:36;;;;;;;0.77;0.30;;;19.70;37.40;;;;;;2342246;54;20992;-72
2022/08/07 01:11:02;;;;;;;1.15;0.37;;;19.60;37.40;;;;;;2342347;54;20956;-69
2022/08/07 01:13:30;;;;;;;0.52;0.35;;;19.60;37.80;;;;;;2342114;54;20992;-69
2022/08/07 01:15:56;;;;;;;0.85;0.40;;;19.50;37.90;;;;;;2342021;55;20917;-68
2022/08/07 01:18:23;;;;;;;1.25;0.50;;;19.50;37.90;;;;;;2340511;55;21413;-70
2022/08/07 01:21:12;;;;;;;1.37;0.50;;;19.50;38.00;;;;;;2588121;53;21490;-69
2022/08/07 01:23:40;;;;;;;1.00;0.40;;;19.40;38.10;;;;;;2316281;55;21373;-68
2022/08/07 01:26:08;;;;;;;2.75;0.50;;;19.40;38.10;;;;;;2342268;55;21098;-69
2022/08/07 01:28:36;;;;;;;0.70;0.40;;;19.30;38.10;;;;;;2486095;53;20952;-74
2022/08/07 01:31:02;;;;;;;0.90;0.50;;;19.30;38.20;;;;;;2342849;54;21733;-69
2022/08/07 01:33:29;;;;;;;1.10;0.40;;;19.20;38.30;;;;;;2341904;55;21481;-70
2022/08/07 01:35:56;;;;;;;1.00;0.40;;;19.20;38.40;;;;;;2341919;54;21008;-70
2022/08/07 01:38:22;;;;;;;0.90;0.40;;;19.10;38.60;;;;;;2318272;54;21005;-70
2022/08/07 01:40:49;;;;;;;0.75;0.40;;;19.10;38.90;;;;;;2323948;54;20933;-69
2022/08/07 01:43:15;;;;;;;1.75;0.40;;;19.10;38.80;;;;;;2581012;53;20905;-73
2022/08/07 01:45:42;;;;;;;0.88;0.50;;;19.00;38.70;;;;;;2318773;54;20964;-69
2022/08/07 01:48:08;;;;;;;0.88;0.40;;;19.00;38.70;;;;;;2396929;53;20981;-69
2022/08/07 01:50:37;;;;;;;1.00;0.30;;;18.90;38.60;;;;;;2331391;54;20984;-68
2022/08/07 01:53:03;;;;;;;0.77;0.40;;;18.90;38.70;;;;;;2384661;53;21448;-71
2022/08/07 01:55:36;;;;;;;0.70;0.30;;;18.80;38.70;;;;;;2331601;54;20949;-69
2022/08/07 01:58:06;;;;;;;1.35;0.40;;;18.80;38.90;;;;;;2494183;53;21017;-70
2022/08/07 02:00:33;;;;;;;0.73;0.40;;;18.70;38.90;;;;;;2325880;54;20928;-67
2022/08/07 02:03:03;;;;;;;1.05;0.60;;;18.70;38.90;;;;;;2341914;55;21009;-69
2022/08/07 02:05:35;;;;;;;1.65;0.50;;;18.70;39.20;;;;;;2341967;55;21000;-72
2022/08/07 02:08:02;;;;;;;;;;;18.60;39.30;;;;;;2333461;54;20941;-69
2022/08/07 02:10:28;;;;;;;1.25;0.47;;;18.60;39.40;;;;;;2522081;53;20122;-70
2022/08/07 02:12:57;;;;;;;0.82;0.37;;;18.50;38.90;;;;;;2336090;55;20953;-68
2022/08/07 02:15:25;;;;;;;0.43;0.30;;;18.50;39.10;;;;;;2409608;54;20996;-69
2022/08/07 02:17:55;;;;;;;0.45;0.30;;;18.40;39.00;;;;;;2291015;54;20972;-68
2022/08/07 02:20:36;;;;;;;0.75;0.30;;;18.40;39.20;;;;;;2415470;53;21636;-69
2022/08/07 02:23:04;;;;;;;1.58;0.40;;;18.40;39.60;;;;;;2318855;55;21042;-69
2022/08/07 02:25:31;;;;;;;0.70;0.32;;;18.30;39.20;;;;;;2356844;54;20951;-69
2022/08/07 02:27:58;;;;;;;0.60;0.37;;;18.30;39.30;;;;;;2314716;55;20965;-68
2022/08/07 02:30:24;;;;;;;0.65;0.40;;;18.20;39.40;;;;;;2343450;55;21262;-69
2022/08/07 02:32:59;;;;;;;0.62;0.40;;;18.20;39.50;;;;;;2479573;53;21006;-68
2022/08/07 02:35:27;;;;;;;1.27;0.40;;;18.10;39.60;;;;;;2475116;54;20974;-70
2022/08/07 02:37:55;;;;;;;1.08;0.50;;;18.10;39.50;;;;;;2342609;55;21015;-68
2022/08/07 02:40:21;;;;;;;0.60;0.30;;;18.00;39.50;;;;;;2366718;53;21508;-69
2022/08/07 02:42:48;;;;;;;1.35;0.40;;;18.00;39.60;;;;;;2451173;53;20937;-68
2022/08/07 02:45:15;;;;;;;1.77;0.40;;;17.90;39.60;;;;;;2396496;54;21062;-68
2022/08/07 02:47:41;;;;;;;3.25;0.50;;;17.90;39.80;;;;;;2321690;54;20958;-71
2022/08/07 02:50:08;;;;;;;1.10;0.50;;;17.80;39.80;;;;;;2588759;53;21041;-69
2022/08/07 02:52:38;;;;;;;1.33;0.55;;;17.80;40.00;;;;;;2322586;54;20955;-68
2022/08/07 02:55:09;;;;;;;1.62;0.60;;;17.80;40.30;;;;;;2330669;54;21842;-69
2022/08/07 02:57:36;;;;;;;0.93;0.43;;;17.70;40.20;;;;;;2371266;54;21023;-70
2022/08/07 03:00:04;;;;;;;0.52;0.40;;;17.70;40.20;;;;;;2575470;53;21026;-70
2022/08/07 03:02:31;;;;;;;1.45;0.50;;;17.60;40.20;;;;;;2342676;54;20970;-69
2022/08/07 03:04:57;;;;;;;0.90;0.47;;;17.60;40.20;;;;;;2416543;53;21142;-68
2022/08/07 03:07:24;;;;;;;2.80;0.50;;;17.60;40.30;;;;;;2342792;55;21002;-68
2022/08/07 03:09:51;;;;;;;0.90;0.40;;;17.50;40.20;;;;;;2588514;53;20946;-69
2022/08/07 03:12:19;;;;;;;1.20;0.40;;;17.50;40.40;;;;;;2342147;54;21017;-69
2022/08/07 03:14:45;;;;;;;0.93;0.40;;;17.50;40.40;;;;;;2372628;53;20949;-68
2022/08/07 03:17:12;;;;;;;1.00;0.40;;;17.40;40.40;;;;;;2342944;54;20970;-70
2022/08/07 03:19:38;;;;;;;0.88;0.40;;;17.40;40.40;;;;;;2489105;53;21797;-69
2022/08/07 03:22:05;;;;;;;1.60;0.60;;;17.40;40.80;;;;;;2327740;54;20975;-68
2022/08/07 03:24:32;;;;;;;1.05;0.50;;;17.30;41.00;;;;;;2498402;53;20992;-72
2022/08/07 03:27:00;;;;;;;0.57;0.30;;;17.30;41.10;;;;;;2342612;54;20945;-69
2022/08/07 03:29:32;;;;;;;1.02;0.50;;;17.30;41.20;;;;;;2510255;53;21022;-70
2022/08/07 03:31:59;;;;;;;;;;;17.30;41.10;;;;;;2346445;55;21045;-68
2022/08/07 03:34:26;;;;;;;1.15;0.47;;;17.20;41.30;;;;;;2519706;53;20054;-68
2022/08/07 03:36:52;;;;;;;1.00;0.43;;;17.20;40.80;;;;;;2342497;54;20938;-68
2022/08/07 03:39:19;;;;;;;0.95;0.50;;;17.20;40.90;;;;;;2343009;54;21002;-69
2022/08/07 03:41:45;;;;;;;0.88;0.37;;;17.10;40.90;;;;;;2342765;54;20966;-69
2022/08/07 03:44:12;;;;;;;1.20;0.60;;;17.10;41.00;;;;;;2588616;53;20927;-68
2022/08/07 03:46:40;;;;;;;0.98;0.45;;;17.10;41.10;;;;;;2493128;53;21017;-69
2022/08/07 03:49:07;;;;;;;0.77;0.40;;;17.10;41.20;;;;;;2323874;54;20966;-68
2022/08/07 03:51:37;;;;;;;0.93;0.43;;;17.00;41.20;;;;;;2342484;55;21002;-69
2022/08/07 03:54:05;;;;;;;0.88;0.40;;;16.90;41.20;;;;;;2343151;54;20958;-68
2022/08/07 03:56:35;;;;;;;0.90;0.43;;;16.90;41.30;;;;;;2342425;55;20970;-69
2022/08/07 03:59:03;;;;;;;1.25;0.60;;;16.90;41.50;;;;;;2343079;55;20905;-72
2022/08/07 04:01:29;;;;;;;1.12;0.50;;;16.90;41.50;;;;;;2342888;54;20973;-68
2022/08/07 04:03:58;;;;;;;1.45;0.68;;;16.80;41.50;;;;;;2361917;53;20961;-69
2022/08/07 04:06:25;;;;;;;1.15;0.55;;;16.80;41.60;;;;;;2342094;54;20931;-69
2022/08/07 04:08:53;;;;;;;1.80;0.57;;;16.70;41.70;;;;;;2495116;53;20998;-68
2022/08/07 04:11:20;;;;;;;1.23;0.40;;;16.70;41.70;;;;;;2588416;53;20947;-69
2022/08/07 04:13:46;;;;;;;1.42;0.60;;;16.70;41.80;;;;;;2380510;53;20923;-70
2022/08/07 04:16:13;;;;;;;1.58;0.47;;;16.70;41.90;;;;;;2332220;54;21012;-69
2022/08/07 04:18:40;;;;;;;0.93;0.57;;;16.70;42.00;;;;;;2329515;54;21768;-71
2022/08/07 04:21:07;;;;;;;1.40;0.60;;;16.60;41.90;;;;;;2342125;54;21639;-72
2022/08/07 04:23:37;;;;;;;1.10;0.50;;;16.60;42.00;;;;;;2561370;53;20954;-68
2022/08/07 04:26:05;;;;;;;1.80;0.52;;;16.60;42.10;;;;;;2343027;55;20986;-72
2022/08/07 04:28:31;;;;;;;1.05;0.50;;;16.50;42.20;;;;;;2342838;55;21050;-69
2022/08/07 04:30:58;;;;;;;1.48;0.60;;;16.60;42.40;;;;;;2342523;55;21564;-69
2022/08/07 04:33:31;;;;;;;0.85;0.50;;;16.50;42.30;;;;;;2589267;53;20959;-70
2022/08/07 04:35:57;;;;;;;1.98;0.40;;;16.50;42.30;;;;;;2343290;54;20934;-71
2022/08/07 04:38:24;;;;;;;0.90;0.50;;;16.50;42.50;;;;;;2375785;53;20962;-69
2022/08/07 04:40:51;;;;;;;0.80;0.30;;;16.50;42.60;;;;;;2342611;54;21027;-69
2022/08/07 04:43:23;;;;;;;1.00;0.45;;;16.40;42.50;;;;;;2427822;53;20985;-72
2022/08/07 04:46:02;;;;;;;1.50;0.65;;;16.40;42.60;;;;;;2554292;54;20957;-69
2022/08/07 04:49:00;;;;;;;1.58;0.60;;;16.40;42.70;;;;;;2534918;54;21025;-70
2022/08/07 04:52:59;;;;;;;0.75;0.40;;;16.40;43.20;;;;;;2575336;53;21028;-71
2022/08/07 04:55:42;;;;;;;1.27;0.55;;;16.50;43.30;;;;;;2379547;53;20953;-68
2022/08/07 04:58:22;;;;;;;2.10;0.70;;;16.40;42.80;;;;;;2342704;54;21399;-69
2022/08/07 05:00:58;;;;;;;0.70;0.40;;;16.40;43.20;;;;;;2439814;53;21423;-68
2022/08/07 05:06:06;;;;;;;1.52;0.60;;;16.40;43.10;;;;;;2340387;54;20957;-68
2022/08/07 05:08:57;;;;;;;1.12;0.50;;;16.40;43.30;;;;;;2529885;53;21076;-70
2022/08/07 05:11:34;;;;;;;0.95;0.57;;;16.40;43.00;;;;;;2324994;54;21028;-72
2022/08/07 05:14:09;;;;;;;1.73;0.70;;;16.40;43.40;;;;;;2323463;54;21005;-69
2022/08/07 05:16:36;;;;;;;1.87;0.70;;;16.40;43.40;;;;;;2338312;54;20995;-70
2022/08/07 05:19:09;;;;;;;1.48;0.60;;;16.30;43.40;;;;;;2577508;53;20946;-73
2022/08/07 05:21:41;;;;;;;1.80;0.70;;;16.40;43.70;;;;;;2325248;54;20989;-72
2022/08/07 05:24:11;;;;;;;0.55;0.40;;;16.40;43.80;;;;;;2342444;55;21024;-68
2022/08/07 05:26:38;;;;;;;1.42;0.60;;;16.40;43.80;;;;;;2341879;54;20944;-69
2022/08/07 05:29:06;;;;;;;1.20;0.50;;;16.40;43.70;;;;;;2348593;53;21450;-72
2022/08/07 05:31:37;;;;;;;1.37;0.50;;;16.40;43.80;;;;;;2342230;55;20949;-72
2022/08/07 05:34:08;;;;;;;0.95;0.40;;;16.40;43.80;;;;;;2342305;55;20960;-69
2022/08/07 05:36:37;;;;;;;3.40;0.60;;;16.40;43.90;;;;;;2342353;54;20924;-68
2022/08/07 05:39:04;;;;;;;1.80;0.57;;;16.40;44.00;;;;;;2469606;53;20952;-69
2022/08/07 05:41:30;;;;;;;1.80;0.68;;;16.50;44.10;;;;;;2580452;53;20974;-68
2022/08/07 05:43:57;;;;;;;1.10;0.60;;;16.50;44.20;;;;;;2313571;54;20940;-69
2022/08/07 05:46:24;;;;;;;1.30;0.50;;;16.60;44.30;;;;;;2332871;54;20990;-73
2022/08/07 05:48:51;;;;;;;1.92;0.60;;;16.60;44.30;;;;;;2331741;54;22161;-71
2022/08/07 05:51:18;;;;;;;0.90;0.50;;;16.60;44.40;;;;;;2344067;54;22087;-69
2022/08/07 05:53:45;;;;;;;3.03;0.80;;;16.60;44.50;;;;;;2391203;53;20950;-69
2022/08/07 05:56:12;;;;;;;1.83;0.70;;;16.70;44.70;;;;;;2342151;55;20961;-69
2022/08/07 05:58:40;;;;;;;2.28;0.70;;;16.70;44.80;;;;;;2337918;55;21833;-71
2022/08/07 06:01:08;;;;;;;1.48;0.65;;;16.80;44.80;;;;;;2323239;54;20920;-69
2022/08/07 06:03:35;;;;;;;1.65;0.50;;;16.80;44.80;;;;;;2564408;53;20949;-70
2022/08/07 06:06:02;;;;;;;0.70;0.40;;;16.90;44.80;;;;;;2327428;54;21021;-69
2022/08/07 06:08:28;;;;;;;1.35;0.57;;;16.90;44.70;;;;;;2318174;54;21696;-70
2022/08/07 06:10:55;;;;;;;1.12;0.50;;;17.00;44.80;;;;;;2406644;53;21007;-69
2022/08/07 06:13:24;;;;;;;0.73;0.40;;;17.10;44.90;;;;;;2336423;55;20988;-70
2022/08/07 06:15:50;;;;;;;0.93;0.40;;;17.10;45.00;;;;;;2341371;54;20929;-70
2022/08/07 06:18:17;;;;;;;1.48;0.50;;;17.20;44.90;;;;;;2368877;53;20945;-69
2022/08/07 06:20:44;;;;;;;1.02;0.50;;;17.20;45.00;;;;;;2526628;53;20928;-71
2022/08/07 06:23:12;;;;;;;1.23;0.50;;;17.30;45.10;;;;;;2342136;54;20992;-72
2022/08/07 06:25:42;;;;;;;1.35;0.50;;;17.40;45.20;;;;;;2338786;54;21490;-68
2022/08/07 06:28:09;;;;;;;1.98;0.65;;;17.40;45.10;;;;;;2341955;54;20924;-69
2022/08/07 06:30:37;;;;;;;1.02;0.43;;;17.50;45.10;;;;;;2342475;54;20937;-68
2022/08/07 06:33:06;;;;;;;1.40;0.52;;;17.60;45.10;;;;;;2342639;54;20997;-71
2022/08/07 06:35:33;;;;;;;0.93;0.45;;;17.70;45.10;;;;;;2334769;54;21624;-70
2022/08/07 06:38:00;;;;;;;1.42;0.62;;;17.70;45.10;;;;;;2323094;54;20931;-69
2022/08/07 06:40:27;;;;;;;0.90;0.50;;;17.80;45.10;;;;;;2341488;54;20932;-70
2022/08/07 06:43:10;;;;;;;0.80;0.43;;;17.90;45.10;;;;;;2588882;53;21007;-71
2022/08/07 06:45:36;;;;;;;0.60;0.30;;;18.00;45.40;;;;;;2337997;55;21108;-70
2022/08/07 06:48:05;;;;;;;1.23;0.52;;;18.10;45.10;;;;;;2334158;54;20995;-69
2022/08/07 06:50:32;;;;;;;0.82;0.40;;;18.10;45.10;;;;;;2318843;54;21411;-72
2022/08/07 06:52:58;;;;;;;1.17;0.50;;;18.20;45.20;;;;;;2318973;54;21116;-71
2022/08/07 06:55:30;;;;;;;2.78;0.70;;;18.30;45.10;;;;;;2325119;54;21477;-68
2022/08/07 06:58:04;;;;;;;3.10;0.70;;;18.40;45.10;;;;;;2328294;54;20941;-70
2022/08/07 07:00:33;;;;;;;1.12;0.52;;;18.50;45.00;;;;;;2323980;54;21592;-68
2022/08/07 07:03:01;;;;;;;1.40;0.50;;;18.50;44.90;;;;;;2320976;54;21072;-69
2022/08/07 07:05:27;;;;;;;1.67;0.60;;;18.60;44.90;;;;;;2341757;55;21456;-68
2022/08/07 07:07:53;;;;;;;1.67;0.60;;;18.70;44.80;;;;;;2415160;53;21669;-69
2022/08/07 07:10:30;;;;;;;1.33;0.50;;;18.80;44.80;;;;;;2317669;54;20924;-68
2022/08/07 07:13:05;;;;;;;1.98;0.50;;;18.80;44.90;;;;;;2322200;54;20985;-69
2022/08/07 07:15:36;;;;;;;1.25;0.50;;;19.00;44.90;;;;;;2314890;54;21072;-67
2022/08/07 07:18:31;;;;;;;1.12;0.50;;;19.10;44.90;;;;;;2340547;54;21254;-68
2022/08/07 07:21:21;;;;;;;2.33;0.50;;;19.20;45.80;;;;;;2342689;55;21010;-66
2022/08/07 07:23:50;;;;;;;2.42;0.85;;;19.30;45.00;;;;;;2341580;54;21899;-68
2022/08/07 07:26:18;;;;;;;0.70;0.32;;;19.30;44.80;;;;;;2342489;54;20972;-67
2022/08/07 07:29:05;;;;;;;1.37;0.40;;;19.50;44.90;;;;;;2392016;53;21154;-69
2022/08/07 07:31:39;;;;;;;1.73;0.70;;;19.60;45.00;;;;;;2341196;54;21004;-66
2022/08/07 07:34:10;;;;;;;1.02;0.50;;;19.70;45.40;;;;;;2341461;54;21402;-67
2022/08/07 07:36:37;;;;;;;1.27;0.40;;;19.80;45.40;;;;;;2343596;54;20949;-69
2022/08/07 07:39:04;;;;;;;1.05;0.50;;;19.90;45.20;;;;;;2318814;54;21090;-69
2022/08/07 07:41:32;;;;;;;1.77;0.60;;;20.00;45.10;;;;;;2342042;55;20948;-67
2022/08/07 07:43:59;;;;;;;0.95;0.40;;;20.10;45.10;;;;;;2342340;54;20949;-69
2022/08/07 07:46:25;;;;;;;1.30;0.50;;;20.20;44.90;;;;;;2326496;54;20929;-67
2022/08/07 07:48:52;;;;;;;2.12;0.70;;;20.30;44.80;;;;;;2357583;54;20977;-68
2022/08/07 07:51:19;;;;;;;2.42;0.60;;;20.40;44.70;;;;;;2314307;54;21021;-67
2022/08/07 07:53:46;;;;;;;1.70;0.60;;;20.60;44.70;;;;;;2340781;54;20952;-68
2022/08/07 07:56:12;;;;;;;1.95;0.70;;;20.70;44.80;;;;;;2342250;54;20998;-69
2022/08/07 07:58:39;;;;;;;0.77;0.50;;;20.80;45.00;;;;;;2340656;55;21787;-70
2022/08/07 08:01:06;;;;;;;1.60;0.57;;;20.90;45.00;;;;;;2583675;53;20981;-67
2022/08/07 08:03:33;;;;;;;1.35;0.60;;;21.10;45.70;;;;;;2330695;54;20925;-68
2022/08/07 08:05:59;;;;;;;1.40;0.52;;;21.20;45.00;;;;;;2316942;54;21130;-67
2022/08/07 08:08:31;;;;;;;1.30;0.50;;;21.30;44.80;;;;;;2339271;54;21016;-69
2022/08/07 08:11:03;;;;;;;1.42;0.60;;;21.40;44.80;;;;;;2341796;54;21061;-70
2022/08/07 08:13:29;;;;;;;1.37;0.50;;;21.50;44.60;;;;;;2342064;54;20940;-70
2022/08/07 08:15:57;;;;;;;1.37;0.50;;;21.70;44.40;;;;;;2503347;54;21557;-69
2022/08/07 08:18:25;;;;;;;2.12;0.60;;;21.80;44.40;;;;;;2342342;54;21274;-68
2022/08/07 08:20:51;;;;;;;1.70;0.60;;;21.80;44.30;;;;;;2321741;54;22215;-69
2022/08/07 08:28:50;;;;;;;1.83;0.62;;;22.20;44.00;;;;;;2326467;54;21498;-67
2022/08/07 08:31:25;;;;;;;1.35;0.50;;;22.30;44.00;;;;;;2550041;53;20965;-68
2022/08/07 08:33:53;;;;;;;1.87;0.70;;;22.50;44.00;;;;;;2341953;54;21016;-67
2022/08/07 08:36:23;;;;;;;1.23;0.50;;;22.60;44.20;;;;;;2325672;54;20997;-70
2022/08/07 08:38:49;;;;;;;1.08;0.50;;;22.60;44.10;;;;;;2336229;54;20941;-70
2022/08/07 08:42:51;;;;;;;1.08;0.50;;;22.80;44.10;;;;;;2342531;54;20929;-70
2022/08/07 08:48:53;;;;;;;1.52;0.57;;;23.00;44.00;;;;;;2407462;54;20982;-68
2022/08/07 08:51:46;;;;;;;1.42;0.55;;;23.30;43.70;;;;;;2315228;54;20943;-69
2022/08/07 08:54:25;;;;;;;1.40;0.60;;;23.40;43.30;;;;;;2315480;54;21023;-71
2022/08/07 08:56:52;;;;;;;2.00;0.73;;;23.50;43.20;;;;;;2315137;54;21815;-68
2022/08/07 08:59:49;;;;;;;1.60;0.70;;;23.60;43.30;;;;;;2337202;54;20980;-69
2022/08/07 09:02:24;;;;;;;1.25;0.52;;;23.70;43.30;;;;;;2519431;53;21004;-71
2022/08/07 09:05:27;;;;;;;1.40;0.60;;;23.80;43.30;;;;;;2315471;54;21907;-71
2022/08/07 09:09:30;;;;;;;1.90;0.68;;;24.00;43.20;;;;;;2323974;54;20953;-69
2022/08/07 09:12:34;;;;;;;1.70;0.68;;;24.20;43.20;;;;;;2587269;53;21033;-71
2022/08/07 09:18:30;;;;;;;1.83;0.80;;;24.30;42.90;;;;;;2320148;54;20989;-71
2022/08/07 09:22:28;;;;;;;1.52;0.57;;;24.60;42.80;;;;;;2344440;54;21490;-71
2022/08/07 09:26:34;;;;;;;1.42;0.60;;;24.70;42.60;;;;;;2307356;55;21795;-70
2022/08/07 09:29:16;;;;;;;1.12;0.50;;;24.90;42.70;;;;;;2341291;54;21061;-70
2022/08/07 09:38:19;;;;;;;1.40;0.70;;;25.00;42.60;;;;;;2341680;54;21844;-68
2022/08/07 09:47:50;;;;;;;1.08;0.50;;;25.20;42.50;;;;;;2510407;53;21006;-69
2022/08/07 09:50:30;;;;;;;1.37;0.43;;;25.90;42.50;;;;;;2559629;53;20997;-71
2022/08/07 09:53:03;;;;;;;2.65;0.88;;;26.00;42.00;;;;;;2327005;54;20958;-68
2022/08/07 09:57:40;;;;;;;2.50;0.73;;;26.10;41.90;;;;;;2342665;54;20911;-69
2022/08/07 10:00:13;;;;;;;1.48;0.50;;;26.10;41.80;;;;;;2292220;55;21570;-68
2022/08/07 10:03:04;;;;;;;3.15;0.65;;;26.30;41.80;;;;;;2317418;54;21031;-70
2022/08/07 10:07:41;;;;;;;1.85;0.68;;;26.40;41.60;;;;;;2555515;53;20945;-68
2022/08/07 10:13:25;;;;;;;2.35;0.60;;;26.60;41.20;;;;;;2377024;53;21470;-67
2022/08/07 10:18:09;;;;;;;2.15;0.70;;;26.80;41.30;;;;;;2452436;53;21603;-71
2022/08/07 10:24:00;;;;;;;1.12;0.47;;;27.00;41.30;;;;;;2311621;55;21058;-67
2022/08/07 10:27:01;;;;;;;1.58;0.60;;;27.10;40.30;;;;;;2460311;53;21074;-71
2022/08/07 10:29:46;;;;;;;1.08;0.50;;;27.30;40.50;;;;;;2345267;54;22102;-72
2022/08/07 10:34:06;;;;;;;0.98;0.55;;;27.40;40.30;;;;;;2333600;54;21465;-69
2022/08/07 10:37:13;;;;;;;1.83;0.73;;;27.40;40.40;;;;;;2564179;53;20943;-74
2022/08/07 10:40:18;;;;;;;1.70;0.65;;;27.60;39.80;;;;;;2327596;54;21501;-68
2022/08/07 10:43:08;;;;;;;1.20;0.62;;;27.70;39.60;;;;;;2316202;54;21541;-69
2022/08/07 10:45:58;;;;;;;1.10;0.55;;;27.80;39.40;;;;;;2291716;54;21000;-70
2022/08/07 10:48:43;;;;;;;1.67;0.70;;;27.80;39.30;;;;;;2322924;54;21523;-70
2022/08/07 10:52:49;;;;;;;1.37;0.60;;;27.90;39.20;;;;;;2329676;53;20951;-70
2022/08/07 10:55:27;;;;;;;2.28;0.70;;;28.00;39.10;;;;;;2323389;54;21388;-70
2022/08/07 10:58:04;;;;;;;1.73;0.70;;;28.10;39.00;;;;;;2345681;55;20959;-71
2022/08/07 11:00:35;;;;;;;1.37;0.70;;;28.10;38.60;;;;;;2320375;54;21005;-69
2022/08/07 11:03:10;;;;;;;2.00;0.73;;;28.20;38.70;;;;;;2460525;53;20946;-69
2022/08/07 11:06:07;;;;;;;1.77;0.68;;;28.30;38.60;;;;;;2341964;54;21221;-70
2022/08/07 11:08:52;;;;;;;1.62;0.60;;;28.40;38.50;;;;;;2331372;54;20966;-70
2022/08/07 11:11:43;;;;;;;1.80;0.70;;;28.40;38.60;;;;;;2324756;55;21014;-71
2022/08/07 11:14:34;;;;;;;1.60;0.70;;;28.50;38.20;;;;;;2561989;53;21416;-70
2022/08/07 11:17:14;;;;;;;1.23;0.60;;;28.60;38.00;;;;;;2342572;54;21483;-69
2022/08/07 11:19:50;;;;;;;1.60;0.80;;;28.70;38.10;;;;;;2342242;54;20962;-70
2022/08/07 11:22:35;;;;;;;1.20;0.52;;;28.80;38.00;;;;;;2589266;53;21538;-68
2022/08/07 11:25:26;;;;;;;1.75;0.75;;;28.80;37.70;;;;;;2332015;54;21003;-68
2022/08/07 11:29:11;;;;;;;1.98;0.80;;;28.90;37.20;;;;;;2307088;54;21557;-71
2022/08/07 11:32:01;;;;;;;1.62;0.65;;;29.00;36.90;;;;;;2512664;53;20927;-71
2022/08/07 11:34:39;;;;;;;2.05;0.80;;;29.10;37.00;;;;;;2341425;54;20946;-71
2022/08/07 11:46:51;;;;;;;1.98;0.77;;;29.20;37.10;;;;;;2341977;54;21018;-71
2022/08/07 11:54:42;;;;;;;0.82;0.50;;;29.40;37.20;;;;;;2330656;54;21435;-68
2022/08/07 11:58:45;;;;;;;0.70;0.43;;;29.60;36.50;;;;;;2341999;54;20950;-70
2022/08/07 12:04:08;;;;;;;2.22;0.90;;;29.70;36.50;;;;;;2332984;54;21519;-73
2022/08/07 12:07:23;;;;;;;1.40;0.70;;;29.80;35.70;;;;;;2335447;54;20943;-69
2022/08/07 12:10:07;;;;;;;1.60;0.70;;;29.90;35.60;;;;;;2342610;55;20938;-69
2022/08/07 12:12:41;;;;;;;2.85;0.90;;;30.00;35.40;;;;;;2342487;54;21046;-70
2022/08/07 12:15:22;;;;;;;1.70;0.73;;;30.00;35.30;;;;;;2588991;53;21029;-70
2022/08/07 12:17:52;;;;;;;2.55;0.98;;;30.00;35.30;;;;;;2341922;54;20943;-70
2022/08/07 12:20:47;;;;;;;1.00;0.50;;;30.10;35.30;;;;;;2328628;54;20951;-68
2022/08/07 12:27:36;;;;;;;2.33;0.90;;;30.30;35.30;;;;;;2343069;54;20994;-68
2022/08/07 12:30:04;;;;;;;2.62;1.30;;;30.30;35.20;;;;;;2342539;54;21444;-70
2022/08/07 12:32:39;;;;;;;1.85;0.85;;;30.40;34.70;;;;;;2505814;53;20974;-70
2022/08/07 12:35:07;;;;;;;1.77;0.80;;;30.40;34.20;;;;;;2340953;54;21468;-69
2022/08/07 12:37:34;;;;;;;1.08;0.50;;;30.50;34.10;;;;;;2554865;54;20905;-71
2022/08/07 12:40:00;;;;;;;2.25;1.00;;;30.50;34.10;;;;;;2328229;54;21416;-71
2022/08/07 12:42:29;;;;;;;1.20;0.60;;;30.60;34.00;;;;;;2405726;53;21091;-70
2022/08/07 12:44:57;;;;;;;1.23;0.60;;;30.60;34.00;;;;;;2342861;54;20991;-69
2022/08/07 12:47:33;;;;;;;1.87;0.80;;;30.70;33.60;;;;;;2585981;53;20958;-70
2022/08/07 12:50:10;;;;;;;1.60;0.50;;;30.80;33.60;;;;;;2410806;53;21460;-69
2022/08/07 12:52:48;;;;;;;1.95;0.65;;;30.80;33.30;;;;;;2318511;54;20937;-73
2022/08/07 12:55:28;;;;;;;1.08;0.50;;;30.90;33.00;;;;;;2337264;54;21565;-70
2022/08/07 12:57:55;;;;;;;1.52;0.52;;;30.90;32.80;;;;;;2471638;53;21005;-71
2022/08/07 13:00:27;;;;;;;1.10;0.57;;;30.90;32.80;;;;;;2333431;54;20931;-70
2022/08/07 13:05:55;;;;;;;1.52;0.60;;;31.00;32.80;;;;;;2576835;53;20973;-74
2022/08/07 13:08:58;;;;;;;1.10;0.40;;;31.10;33.10;;;;;;2342224;54;21009;-71
2022/08/07 13:11:57;;;;;;;1.17;0.40;;;31.20;32.10;;;;;;2357554;53;20982;-71
2022/08/07 13:15:18;;;;;;;1.80;0.60;;;31.20;31.80;;;;;;2343504;55;20958;-70
2022/08/07 13:18:26;;;;;;;1.80;0.70;;;31.20;31.80;;;;;;2338692;53;20995;-70
2022/08/07 13:21:31;;;;;;;1.15;0.40;;;31.30;31.60;;;;;;2561787;53;20986;-70
2022/08/07 13:24:54;;;;;;;2.42;0.90;;;31.30;31.60;;;;;;2454171;53;20962;-69
2022/08/07 13:27:47;;;;;;;1.42;0.65;;;31.40;31.40;;;;;;2314283;54;20947;-70
2022/08/07 13:30:14;;;;;;;2.08;0.70;;;31.40;31.40;;;;;;2551815;54;20959;-72
2022/08/07 13:36:22;;;;;;;1.65;0.62;;;31.40;31.60;;;;;;2405191;54;21109;-70
2022/08/07 13:42:00;;;;;;;0.90;0.45;;;31.50;31.60;;;;;;2381278;54;20982;-70
2022/08/07 13:44:30;;;;;;;1.50;0.60;;;31.60;31.70;;;;;;2314720;55;21002;-73
2022/08/07 13:46:58;;;;;;;2.00;0.60;;;31.60;31.10;;;;;;2365471;54;21218;-73
2022/08/07 13:49:27;;;;;;;1.08;0.50;;;31.60;30.70;;;;;;2314885;54;20911;-72
2022/08/07 13:51:54;;;;;;;1.15;0.45;;;31.60;30.40;;;;;;2551908;53;21570;-74
2022/08/07 13:54:26;;;;;;;3.78;0.50;;;31.60;30.40;;;;;;2314031;53;20942;-71
2022/08/07 13:56:55;;;;;;;1.20;0.50;;;31.70;30.40;;;;;;2375928;54;21059;-71
2022/08/07 13:59:24;;;;;;;1.15;0.47;;;31.60;30.20;;;;;;2315004;54;21007;-72
2022/08/07 14:02:27;;;;;;;3.35;0.50;;;31.70;30.00;;;;;;2538230;54;20972;-71
2022/08/07 14:04:53;;;;;;;;;;;31.70;29.90;;;;;;2451730;54;20992;-71
2022/08/07 14:07:22;;;;;;;0.80;0.40;;;31.80;30.50;;;;;;2311543;53;20148;-70
2022/08/07 14:09:52;;;;;;;2.75;0.55;;;31.80;30.00;;;;;;2460984;53;20933;-71
2022/08/07 14:13:11;;;;;;;1.25;0.60;;;31.80;29.60;;;;;;2415494;53;21010;-70
2022/08/07 14:15:39;;;;;;;1.15;0.60;;;31.80;29.40;;;;;;2341801;54;21913;-70
2022/08/07 14:18:18;;;;;;;1.70;0.60;;;31.80;29.50;;;;;;2341684;54;20915;-71
2022/08/07 14:20:49;;;;;;;0.90;0.40;;;31.80;29.40;;;;;;2342190;55;20954;-70
2022/08/07 14:23:19;;;;;;;0.73;0.40;;;31.80;29.30;;;;;;2343059;55;21078;-70
2022/08/07 14:25:57;;;;;;;1.15;0.37;;;31.80;29.20;;;;;;2326173;54;21016;-71
2022/08/07 14:28:27;;;;;;;2.15;0.55;;;31.90;28.90;;;;;;2340904;54;20926;-72
2022/08/07 14:30:56;;;;;;;1.45;0.50;;;31.90;28.90;;;;;;2343269;54;20950;-71
2022/08/07 14:33:22;;;;;;;2.83;0.40;;;31.80;28.80;;;;;;2342421;54;21466;-72
2022/08/07 14:35:54;;;;;;;1.08;0.45;;;31.80;28.60;;;;;;2342330;54;21089;-70
2022/08/07 14:38:23;;;;;;;1.15;0.50;;;31.80;28.40;;;;;;2469373;53;20942;-70
2022/08/07 14:40:55;;;;;;;1.02;0.45;;;31.80;28.50;;;;;;2341840;55;20950;-68
2022/08/07 14:43:22;;;;;;;1.67;0.50;;;31.80;28.30;;;;;;2326297;54;20959;-69